Latest Coastal Weather Observations for Cape Byron

IDN60701

Issued at 6:21 pm EDT Wednesday 29 March 2017 (issued every 10 minutes, with the page automatically refreshed every 10 minutes)

About coastal observations | Map of coastal stations | Coastal observations for NSW | Marine services | Other Formats
Station Details ID: 058216 Name: CAPE BYRON AWS Lat: -28.64 Lon: 153.64 Height: 95.0 m
Data from the previous 72 hours. | See also: Recent months at Cape Byron
Date/Time
EDT
Temp
°C
Wind Pressure Rain since
9am
mm
Weather Cloud Vis
km
Sea
Height
m
Swell
Dir  Spd
kts
Gust
kts
hPa Trend Height
m
Period
s
Dir
29/06:00pm 25.7 NE 16 22 1012.8 - 0.0 - - - - - - -
29/05:30pm 26.2 NE 18 22 1012.6 - 0.0 - - - - - - -
29/05:00pm 26.1 NE 18 22 1012.6 - 0.0 - - - - - - -
29/04:30pm 26.6 NE 18 21 1012.6 - 0.0 - - - - - - -
29/04:00pm 27.0 NE 17 22 1012.7 - 0.0 - - - - - - -
29/03:30pm 26.8 NE 19 21 1012.6 - 0.0 - - - - - - -
29/03:00pm 27.0 NE 17 21 1012.9 - 0.0 - - - - - - -
29/02:30pm 27.6 NE 17 20 1013.1 - 0.0 - - - - - - -
29/02:00pm 27.4 NE 18 20 1013.5 - 0.0 - - - - - - -
29/01:30pm 28.6 NE 16 17 1013.9 - 0.0 - - - - - - -
29/01:00pm 28.2 NE 14 17 1014.5 - 0.0 - - - - - - -
29/12:30pm 27.9 NE 15 18 1014.9 - 0.0 - - - - - - -
29/12:00pm 27.1 NE 7 15 1015.2 - 0.0 - - - - - - -
29/11:30am 27.1 NNE 5 9 1015.3 - 0.0 - - - - - - -
29/11:00am 27.3 NE 5 7 1015.4 - 0.0 - - - - - - -
29/10:30am 27.0 NNE 4 7 1015.5 - 0.0 - - - - - - -
29/10:00am 27.0 NNE 4 6 1015.5 - 0.0 - - - - - - -
29/09:30am 26.2 ENE 4 7 1015.4 - 0.0 - - - - - - -
29/09:00am 25.0 N 3 4 1015.2 - 0.0 - - - - - - -
29/08:30am 23.4 WNW 4 5 1015.2 - 0.0 - - - - - - -
29/08:00am 22.7 NW 5 6 1014.7 - 0.0 - - - - - - -
29/07:30am 22.4 NNW 6 6 1014.3 - 0.0 - - - - - - -
29/07:00am 22.2 NNW 6 8 1014.1 - 0.0 - - - - - - -
29/06:30am 22.1 NNW 6 7 1013.8 - 0.0 - - - - - - -
29/06:00am 22.2 NNW 6 8 1013.6 - 0.0 - - - - - - -
29/05:30am 22.3 NNW 6 8 1013.3 - 0.0 - - - - - - -
29/05:00am 22.4 NW 5 7 1013.1 - 0.0 - - - - - - -
29/04:30am 22.9 NW 5 6 1013.0 - 0.0 - - - - - - -
29/04:00am 23.9 NNW 4 7 1013.0 - 0.0 - - - - - - -
29/03:30am 24.2 N 7 9 1013.2 - 0.0 - - - - - - -
29/03:00am 24.5 N 9 16 1013.5 - 0.0 - - - - - - -
29/02:30am 24.6 NNE 9 15 1013.7 - 0.0 - - - - - - -
29/02:00am 24.7 NNE 10 13 1013.9 - 0.0 - - - - - - -
29/01:30am 24.7 NNE 11 16 1014.1 - 0.0 - - - - - - -
29/01:00am 24.6 NNE 10 15 1014.1 - 0.0 - - - - - - -
29/12:30am 24.6 NNE 9 13 1014.2 - 0.0 - - - - - - -
29/12:00am 24.6 NNE 10 14 1014.3 - 0.0 - - - - - - -
 
Date/Time
EDT
Temp
°C
Wind Pressure Rain since
9am
mm
Weather Cloud Vis
km
Sea
Height
m
Swell
Dir  Spd
kts
Gust
kts
hPa Trend Height
m
Period
s
Dir
28/11:30pm 24.5 NNE 9 13 1014.5 - 0.0 - - - - - - -
28/11:00pm 24.5 NNE 9 12 1014.6 - 0.0 - - - - - - -
28/10:30pm 24.5 NE 10 14 1014.7 - 0.0 - - - - - - -
28/10:00pm 24.4 NE 11 15 1014.6 - 0.0 - - - - - - -
28/09:30pm 24.5 NNE 9 12 1014.5 - 0.0 - - - - - - -
28/09:00pm 24.4 NE 10 13 1014.2 - 0.0 - - - - - - -
28/08:30pm 24.5 NE 9 13 1014.0 - 0.0 - - - - - - -
28/08:00pm 24.5 NNE 9 12 1013.9 - 0.0 - - - - - - -
28/07:30pm 24.5 NNE 9 14 1013.6 - 0.0 - - - - - - -
28/07:00pm 24.7 NNE 9 13 1013.4 - 0.0 - - - - - - -
28/06:30pm 25.0 NE 11 15 1013.2 - 0.0 - - - - - - -
28/06:00pm 25.4 NE 13 17 1012.9 - 0.0 - - - - - - -
28/05:30pm 26.0 NE 14 16 1012.8 - 0.0 - - - - - - -
28/05:00pm 27.1 ENE 13 15 1012.5 - 0.0 - - - - - - -
28/04:30pm 26.9 NE 14 16 1012.6 - 0.0 - - - - - - -
28/04:00pm 26.5 NE 14 16 1012.5 - 0.0 - - - - - - -
28/03:30pm 27.2 NE 15 17 1012.5 - 0.0 - - - - - - -
28/03:00pm 27.1 NE 14 16 1012.7 - 0.0 - - - - - - -
28/02:30pm 26.8 NE 15 18 1013.0 - 0.0 - - - - - - -
28/02:00pm 27.0 NE 15 17 1013.1 - 0.0 - - - - - - -
28/01:30pm 27.2 NE 15 17 1013.4 - 0.0 - - - - - - -
28/01:00pm 27.3 NE 15 17 1013.8 - 0.0 - - - - - - -
28/12:30pm 27.2 NNE 9 12 1014.3 - 0.0 - - - - - - -
28/12:00pm 27.2 NNE 8 10 1014.8 - 0.0 - - - - - - -
28/11:30am 26.8 N 9 12 1015.0 - 0.0 - - - - - - -
28/11:00am 26.3 N 8 11 1015.0 - 0.0 - - - - - - -
28/10:30am 26.1 N 7 10 1015.1 - 0.0 - - - - - - -
28/10:00am 25.4 N 7 9 1015.0 - 0.0 - - - - - - -
28/09:30am 25.0 N 5 7 1015.1 - 0.0 - - - - - - -
28/09:00am 24.4 N 5 7 1014.7 - 0.2 - - - - - - -
28/08:30am 23.6 N 4 7 1014.4 - 0.2 - - - - - - -
28/08:00am 21.3 NW 4 7 1014.3 - 0.2 - - - - - - -
28/07:30am 20.4 WNW 6 8 1013.9 - 0.2 - - - - - - -
28/07:00am 20.7 NNW 6 8 1013.3 - 0.2 - - - - - - -
28/06:30am 20.5 NW 6 7 1013.2 - 0.2 - - - - - - -
28/06:00am 20.6 NW 6 7 1012.9 - 0.2 - - - - - - -
28/05:30am 21.0 NW 5 6 1012.9 - 0.2 - - - - - - -
28/05:00am 20.9 NW 5 7 1012.7 - 0.2 - - - - - - -
28/04:30am 21.4 NW 4 5 1012.7 - 0.2 - - - - - - -
28/04:00am 22.0 NNW 3 5 1012.9 - 0.2 - - - - - - -
28/03:30am 22.0 NNW 5 7 1013.1 - 0.2 - - - - - - -
28/03:00am 22.0 NW 4 5 1013.5 - 0.2 - - - - - - -
28/02:30am 22.8 N 3 5 1013.8 - 0.2 - - - - - - -
28/02:00am 23.5 N 8 13 1014.1 - 0.2 - - - - - - -
28/01:30am 23.7 N 9 12 1014.4 - 0.2 - - - - - - -
28/01:00am 23.7 NNE 10 14 1014.5 - 0.2 - - - - - - -
28/12:30am 23.7 NNE 11 17 1014.7 - 0.2 - - - - - - -
28/12:00am 23.8 NE 11 15 1014.9 - 0.2 - - - - - - -
 
Date/Time
EDT
Temp
°C
Wind Pressure Rain since
9am
mm
Weather Cloud Vis
km
Sea
Height
m
Swell
Dir  Spd
kts
Gust
kts
hPa Trend Height
m
Period
s
Dir
27/11:30pm 23.8 NE 13 17 1015.1 - 0.2 - - - - - - -
27/11:00pm 23.5 NE 15 18 1015.1 - 0.2 - - - - - - -
27/10:30pm 23.5 NE 14 19 1015.4 - 0.2 - - - - - - -
27/10:00pm 23.7 NE 13 17 1015.5 - 0.2 - - - - - - -
27/09:30pm 23.7 NE 13 16 1015.6 - 0.2 - - - - - - -
27/09:00pm 23.6 NE 12 15 1015.4 - 0.2 - - - - - - -
27/08:30pm 23.3 NE 13 16 1015.2 - 0.2 - - - - - - -
27/08:00pm 23.5 ENE 10 12 1015.0 - 0.2 - - - - - - -
27/07:30pm 23.3 ENE 9 13 1014.5 - 0.2 - - - - - - -
27/07:00pm 23.3 E 8 12 1014.3 - 0.2 - - - - - - -
27/06:30pm 23.6 E 7 11 1013.9 - 0.2 - - - - - - -
27/06:00pm 24.0 E 8 13 1013.9 - 0.2 - - - - - - -
27/05:30pm 24.6 E 8 13 1013.8 - 0.2 - - - - - - -
27/05:00pm 24.9 E 7 11 1013.9 - 0.2 - - - - - - -
27/04:30pm 26.3 ENE 7 11 1013.8 - 0.2 - - - - - - -
27/04:00pm 26.9 E 7 11 1014.0 - 0.2 - - - - - - -
27/03:30pm 27.3 E 8 11 1014.2 - 0.2 - - - - - - -
27/03:00pm 27.4 E 7 11 1014.3 - 0.2 - - - - - - -
27/02:30pm 27.6 E 7 10 1014.4 - 0.2 - - - - - - -
27/02:00pm 27.9 E 9 13 1014.8 - 0.2 - - - - - - -
27/01:30pm 27.3 E 8 11 1015.2 - 0.2 - - - - - - -
27/01:00pm 27.1 E 11 13 1015.6 - 0.2 - - - - - - -
27/12:30pm 26.7 SE 7 9 1016.1 - 0.2 - - - - - - -
27/12:00pm 26.4 SSE 7 10 1016.5 - 0.2 Recent precip. - - - - - -
27/11:30am 25.7 S 7 10 1016.5 - 0.0 - - - - - - -
27/11:00am 24.8 SSW 7 9 1016.8 - 0.0 - - - - - - -
27/10:30am 24.4 SW 8 11 1016.7 - 0.0 - - - - - - -
27/10:00am 23.0 WSW 9 12 1016.8 - 0.0 - - - - - - -
27/09:30am 22.6 WSW 9 13 1016.8 - 0.0 - - - - - - -
27/09:00am 22.4 SW 12 14 1016.5 - 1.8 - - - - - - -
27/08:30am 21.6 WSW 9 13 1016.3 - 1.8 - - - - - - -
27/08:00am 21.0 WSW 11 14 1015.8 - 1.8 - - - - - - -
27/07:30am 20.9 WSW 11 14 1015.3 - 1.8 - - - - - - -
27/07:00am 21.0 WSW 13 16 1015.1 - 1.8 - - - - - - -
27/06:30am 21.1 WSW 11 14 1015.0 - 1.8 - - - - - - -
27/06:00am 21.3 SW 11 14 1014.7 - 1.8 - - - - - - -
27/05:30am 21.5 SW 12 15 1014.5 - 1.8 - - - - - - -
27/05:00am 21.8 SW 12 14 1014.4 - 1.8 - - - - - - -
27/04:30am 21.8 SW 13 17 1014.4 - 1.8 - - - - - - -
27/04:00am 21.8 SW 12 15 1014.5 - 1.8 - - - - - - -
27/03:30am 21.9 SW 9 11 1014.6 - 1.8 - - - - - - -
27/03:00am 22.3 WSW 8 11 1015.0 - 1.8 - - - - - - -
27/02:30am 22.9 NW 4 5 1015.3 - 1.8 - - - - - - -
27/02:00am 23.2 NW 1 4 1015.7 - 1.8 - - - - - - -
27/01:30am 22.9 CALM 0 3 1015.9 - 1.8 - - - - - - -
27/01:00am 22.8 SW 9 13 1016.0 - 0.6 - - - - - - -
27/12:30am 23.6 NNW 2 4 1016.1 - 0.0 - - - - - - -
27/12:00am 23.9 NW 1 4 1016.3 - 0.0 - - - - - - -
 
Date/Time
EDT
Temp
°C
Wind Pressure Rain since
9am
mm
Weather Cloud Vis
km
Sea
Height
m
Swell
Dir  Spd
kts
Gust
kts
hPa Trend Height
m
Period
s
Dir
26/11:30pm 24.2 N 5 8 1016.3 - 0.0 - - - - - - -
26/11:00pm 24.4 NNE 7 9 1016.4 - 0.0 - - - - - - -
26/10:30pm 24.5 NNE 6 9 1016.5 - 0.0 - - - - - - -
26/10:00pm 24.4 NE 7 9 1016.4 - 0.0 - - - - - - -
26/09:30pm 24.4 NNE 7 9 1016.1 - 0.0 - - - - - - -
26/09:00pm 24.5 NNE 7 9 1015.7 - 0.0 - - - - - - -
26/08:30pm 24.6 NE 9 11 1015.3 - 0.0 - - - - - - -
26/08:00pm 24.6 NE 7 10 1015.0 - 0.0 - - - - - - -
26/07:30pm 24.7 NE 7 11 1014.6 - 0.0 - - - - - - -
26/07:00pm 24.7 NNE 7 9 1014.0 - 0.0 - - - - - - -
26/06:30pm 24.8 NNE 8 10 1013.6 - 0.0 - - - - - - -

Other Formats:

Comma delimited format used in spreadsheet applications
http://www.bom.gov.au/fwo/IDN60701/IDN60701.94599.axf

JavaScript Object Notation format (JSON) in row-major order
http://www.bom.gov.au/fwo/IDN60701/IDN60701.94599.json